<?xml version="1.0" encoding="UTF-8" standalone="no" ?>
<gpx xmlns="http://www.topografix.com/GPX/1/1" xmlns:xsi="http://www.w3.org/2001/XMLSchema-instance" xsi:schemaLocation="http://www.topografix.com/GPX/1/1 http://www.topografix.com/GPX/1/1/gpx.xsd" version="1.1" creator="VisuGPX - https://www.visugpx.com">
  <metadata>
    <name>Lançon - La voie Romainne !</name>
  </metadata>
  <wpt lat="43.60812" lon="5.1741">
    <ele>146</ele>
    <name><![CDATA[Borne Romaine]]></name>
  </wpt>
  <trk>
    <name><![CDATA[Lançon - La voie Romainne !]]></name>
    <trkseg>
      <trkpt lat="43.61101" lon="5.15867">
        <ele>137</ele>
        <time>2022-03-30T13:49:17+02:00</time>
      </trkpt>
      <trkpt lat="43.61118" lon="5.15894">
        <ele>117</ele>
        <time>2022-03-30T13:49:25+02:00</time>
      </trkpt>
      <trkpt lat="43.61105" lon="5.15867">
        <ele>127</ele>
        <time>2022-03-30T13:54:29+02:00</time>
      </trkpt>
      <trkpt lat="43.61082" lon="5.15878">
        <ele>124</ele>
        <time>2022-03-30T13:54:58+02:00</time>
      </trkpt>
      <trkpt lat="43.61059" lon="5.15883">
        <ele>128</ele>
        <time>2022-03-30T13:55:20+02:00</time>
      </trkpt>
      <trkpt lat="43.61037" lon="5.15892">
        <ele>128</ele>
        <time>2022-03-30T13:55:45+02:00</time>
      </trkpt>
      <trkpt lat="43.61014" lon="5.15901">
        <ele>126</ele>
        <time>2022-03-30T13:56:12+02:00</time>
      </trkpt>
      <trkpt lat="43.6099" lon="5.15907">
        <ele>124</ele>
        <time>2022-03-30T13:56:40+02:00</time>
      </trkpt>
      <trkpt lat="43.60966" lon="5.15908">
        <ele>121</ele>
        <time>2022-03-30T13:57:04+02:00</time>
      </trkpt>
      <trkpt lat="43.60944" lon="5.15913">
        <ele>121</ele>
        <time>2022-03-30T13:57:25+02:00</time>
      </trkpt>
      <trkpt lat="43.60921" lon="5.15918">
        <ele>122</ele>
        <time>2022-03-30T13:57:50+02:00</time>
      </trkpt>
      <trkpt lat="43.60898" lon="5.15923">
        <ele>122</ele>
        <time>2022-03-30T13:58:14+02:00</time>
      </trkpt>
      <trkpt lat="43.60874" lon="5.15929">
        <ele>124</ele>
        <time>2022-03-30T13:58:39+02:00</time>
      </trkpt>
      <trkpt lat="43.60849" lon="5.15935">
        <ele>122</ele>
        <time>2022-03-30T13:59:05+02:00</time>
      </trkpt>
      <trkpt lat="43.60824" lon="5.1594">
        <ele>124</ele>
        <time>2022-03-30T13:59:29+02:00</time>
      </trkpt>
      <trkpt lat="43.60801" lon="5.15943">
        <ele>124</ele>
        <time>2022-03-30T13:59:52+02:00</time>
      </trkpt>
      <trkpt lat="43.60776" lon="5.15949">
        <ele>125</ele>
        <time>2022-03-30T14:00:14+02:00</time>
      </trkpt>
      <trkpt lat="43.60753" lon="5.15949">
        <ele>126</ele>
        <time>2022-03-30T14:00:34+02:00</time>
      </trkpt>
      <trkpt lat="43.6073" lon="5.15953">
        <ele>122</ele>
        <time>2022-03-30T14:00:57+02:00</time>
      </trkpt>
      <trkpt lat="43.60708" lon="5.15959">
        <ele>124</ele>
        <time>2022-03-30T14:01:20+02:00</time>
      </trkpt>
      <trkpt lat="43.60683" lon="5.15951">
        <ele>126</ele>
        <time>2022-03-30T14:01:43+02:00</time>
      </trkpt>
      <trkpt lat="43.6066" lon="5.15946">
        <ele>130</ele>
        <time>2022-03-30T14:02:07+02:00</time>
      </trkpt>
      <trkpt lat="43.60635" lon="5.1595">
        <ele>134</ele>
        <time>2022-03-30T14:02:31+02:00</time>
      </trkpt>
      <trkpt lat="43.60612" lon="5.15955">
        <ele>138</ele>
        <time>2022-03-30T14:03:45+02:00</time>
      </trkpt>
      <trkpt lat="43.60591" lon="5.15972">
        <ele>136</ele>
        <time>2022-03-30T14:04:15+02:00</time>
      </trkpt>
      <trkpt lat="43.6057" lon="5.15986">
        <ele>134</ele>
        <time>2022-03-30T14:04:44+02:00</time>
      </trkpt>
      <trkpt lat="43.60549" lon="5.15997">
        <ele>134</ele>
        <time>2022-03-30T14:05:04+02:00</time>
      </trkpt>
      <trkpt lat="43.60527" lon="5.16006">
        <ele>133</ele>
        <time>2022-03-30T14:05:27+02:00</time>
      </trkpt>
      <trkpt lat="43.60502" lon="5.16011">
        <ele>137</ele>
        <time>2022-03-30T14:05:50+02:00</time>
      </trkpt>
      <trkpt lat="43.60479" lon="5.16005">
        <ele>138</ele>
        <time>2022-03-30T14:06:12+02:00</time>
      </trkpt>
      <trkpt lat="43.60453" lon="5.15999">
        <ele>133</ele>
        <time>2022-03-30T14:06:37+02:00</time>
      </trkpt>
      <trkpt lat="43.60429" lon="5.16004">
        <ele>131</ele>
        <time>2022-03-30T14:06:58+02:00</time>
      </trkpt>
      <trkpt lat="43.60407" lon="5.16006">
        <ele>134</ele>
        <time>2022-03-30T14:07:17+02:00</time>
      </trkpt>
      <trkpt lat="43.60384" lon="5.16007">
        <ele>133</ele>
        <time>2022-03-30T14:07:37+02:00</time>
      </trkpt>
      <trkpt lat="43.60363" lon="5.16016">
        <ele>132</ele>
        <time>2022-03-30T14:08:56+02:00</time>
      </trkpt>
      <trkpt lat="43.60347" lon="5.16043">
        <ele>134</ele>
        <time>2022-03-30T14:09:20+02:00</time>
      </trkpt>
      <trkpt lat="43.60328" lon="5.16062">
        <ele>136</ele>
        <time>2022-03-30T14:09:40+02:00</time>
      </trkpt>
      <trkpt lat="43.60305" lon="5.16075">
        <ele>136</ele>
        <time>2022-03-30T14:10:01+02:00</time>
      </trkpt>
      <trkpt lat="43.60281" lon="5.16082">
        <ele>138</ele>
        <time>2022-03-30T14:10:24+02:00</time>
      </trkpt>
      <trkpt lat="43.60276" lon="5.16113">
        <ele>135</ele>
        <time>2022-03-30T14:11:24+02:00</time>
      </trkpt>
      <trkpt lat="43.60281" lon="5.16148">
        <ele>137</ele>
        <time>2022-03-30T14:13:24+02:00</time>
      </trkpt>
      <trkpt lat="43.60288" lon="5.16178">
        <ele>137</ele>
        <time>2022-03-30T14:13:41+02:00</time>
      </trkpt>
      <trkpt lat="43.60295" lon="5.16213">
        <ele>139</ele>
        <time>2022-03-30T14:14:04+02:00</time>
      </trkpt>
      <trkpt lat="43.60277" lon="5.16234">
        <ele>137</ele>
        <time>2022-03-30T14:15:02+02:00</time>
      </trkpt>
      <trkpt lat="43.60295" lon="5.16253">
        <ele>134</ele>
        <time>2022-03-30T14:15:42+02:00</time>
      </trkpt>
      <trkpt lat="43.6029" lon="5.16286">
        <ele>139</ele>
        <time>2022-03-30T14:16:08+02:00</time>
      </trkpt>
      <trkpt lat="43.60289" lon="5.16319">
        <ele>139</ele>
        <time>2022-03-30T14:16:33+02:00</time>
      </trkpt>
      <trkpt lat="43.6029" lon="5.1635">
        <ele>142</ele>
        <time>2022-03-30T14:17:06+02:00</time>
      </trkpt>
      <trkpt lat="43.60287" lon="5.16382">
        <ele>143</ele>
        <time>2022-03-30T14:17:28+02:00</time>
      </trkpt>
      <trkpt lat="43.6029" lon="5.16414">
        <ele>145</ele>
        <time>2022-03-30T14:17:52+02:00</time>
      </trkpt>
      <trkpt lat="43.60308" lon="5.16433">
        <ele>150</ele>
        <time>2022-03-30T14:18:25+02:00</time>
      </trkpt>
      <trkpt lat="43.6033" lon="5.16444">
        <ele>148</ele>
        <time>2022-03-30T14:18:50+02:00</time>
      </trkpt>
      <trkpt lat="43.60352" lon="5.16457">
        <ele>142</ele>
        <time>2022-03-30T14:19:14+02:00</time>
      </trkpt>
      <trkpt lat="43.60373" lon="5.16471">
        <ele>146</ele>
        <time>2022-03-30T14:19:44+02:00</time>
      </trkpt>
      <trkpt lat="43.60395" lon="5.16477">
        <ele>147</ele>
        <time>2022-03-30T14:20:14+02:00</time>
      </trkpt>
      <trkpt lat="43.6042" lon="5.1648">
        <ele>146</ele>
        <time>2022-03-30T14:20:41+02:00</time>
      </trkpt>
      <trkpt lat="43.60444" lon="5.16469">
        <ele>147</ele>
        <time>2022-03-30T14:21:04+02:00</time>
      </trkpt>
      <trkpt lat="43.60463" lon="5.16452">
        <ele>149</ele>
        <time>2022-03-30T14:21:28+02:00</time>
      </trkpt>
      <trkpt lat="43.60487" lon="5.16452">
        <ele>150</ele>
        <time>2022-03-30T14:21:52+02:00</time>
      </trkpt>
      <trkpt lat="43.60507" lon="5.16434">
        <ele>143</ele>
        <time>2022-03-30T14:22:13+02:00</time>
      </trkpt>
      <trkpt lat="43.60528" lon="5.16419">
        <ele>142</ele>
        <time>2022-03-30T14:22:35+02:00</time>
      </trkpt>
      <trkpt lat="43.60546" lon="5.16396">
        <ele>146</ele>
        <time>2022-03-30T14:22:59+02:00</time>
      </trkpt>
      <trkpt lat="43.60567" lon="5.1638">
        <ele>149</ele>
        <time>2022-03-30T14:24:31+02:00</time>
      </trkpt>
      <trkpt lat="43.60584" lon="5.16402">
        <ele>147</ele>
        <time>2022-03-30T14:24:58+02:00</time>
      </trkpt>
      <trkpt lat="43.60591" lon="5.16435">
        <ele>144</ele>
        <time>2022-03-30T14:25:24+02:00</time>
      </trkpt>
      <trkpt lat="43.60598" lon="5.16465">
        <ele>145</ele>
        <time>2022-03-30T14:26:02+02:00</time>
      </trkpt>
      <trkpt lat="43.60617" lon="5.16485">
        <ele>147</ele>
        <time>2022-03-30T14:27:13+02:00</time>
      </trkpt>
      <trkpt lat="43.60613" lon="5.16516">
        <ele>149</ele>
        <time>2022-03-30T14:27:37+02:00</time>
      </trkpt>
      <trkpt lat="43.6061" lon="5.16548">
        <ele>151</ele>
        <time>2022-03-30T14:28:26+02:00</time>
      </trkpt>
      <trkpt lat="43.60611" lon="5.16579">
        <ele>151</ele>
        <time>2022-03-30T14:29:18+02:00</time>
      </trkpt>
      <trkpt lat="43.60608" lon="5.16611">
        <ele>152</ele>
        <time>2022-03-30T14:29:42+02:00</time>
      </trkpt>
      <trkpt lat="43.60603" lon="5.16642">
        <ele>151</ele>
        <time>2022-03-30T14:30:05+02:00</time>
      </trkpt>
      <trkpt lat="43.60594" lon="5.16671">
        <ele>150</ele>
        <time>2022-03-30T14:30:39+02:00</time>
      </trkpt>
      <trkpt lat="43.6058" lon="5.16697">
        <ele>146</ele>
        <time>2022-03-30T14:31:03+02:00</time>
      </trkpt>
      <trkpt lat="43.6058" lon="5.16731">
        <ele>142</ele>
        <time>2022-03-30T14:31:28+02:00</time>
      </trkpt>
      <trkpt lat="43.6058" lon="5.16763">
        <ele>143</ele>
        <time>2022-03-30T14:31:50+02:00</time>
      </trkpt>
      <trkpt lat="43.60577" lon="5.16796">
        <ele>147</ele>
        <time>2022-03-30T14:32:19+02:00</time>
      </trkpt>
      <trkpt lat="43.60573" lon="5.16828">
        <ele>142</ele>
        <time>2022-03-30T14:32:41+02:00</time>
      </trkpt>
      <trkpt lat="43.6057" lon="5.16863">
        <ele>149</ele>
        <time>2022-03-30T14:33:02+02:00</time>
      </trkpt>
      <trkpt lat="43.60572" lon="5.16898">
        <ele>150</ele>
        <time>2022-03-30T14:33:22+02:00</time>
      </trkpt>
      <trkpt lat="43.60559" lon="5.16925">
        <ele>147</ele>
        <time>2022-03-30T14:33:44+02:00</time>
      </trkpt>
      <trkpt lat="43.60548" lon="5.16954">
        <ele>148</ele>
        <time>2022-03-30T14:34:04+02:00</time>
      </trkpt>
      <trkpt lat="43.6054" lon="5.1699">
        <ele>149</ele>
        <time>2022-03-30T14:34:28+02:00</time>
      </trkpt>
      <trkpt lat="43.6053" lon="5.17018">
        <ele>149</ele>
        <time>2022-03-30T14:34:50+02:00</time>
      </trkpt>
      <trkpt lat="43.6052" lon="5.17046">
        <ele>150</ele>
        <time>2022-03-30T14:35:18+02:00</time>
      </trkpt>
      <trkpt lat="43.60496" lon="5.17048">
        <ele>156</ele>
        <time>2022-03-30T14:35:39+02:00</time>
      </trkpt>
      <trkpt lat="43.60476" lon="5.17066">
        <ele>155</ele>
        <time>2022-03-30T14:36:14+02:00</time>
      </trkpt>
      <trkpt lat="43.60462" lon="5.17092">
        <ele>157</ele>
        <time>2022-03-30T14:36:40+02:00</time>
      </trkpt>
      <trkpt lat="43.60455" lon="5.17122">
        <ele>160</ele>
        <time>2022-03-30T14:38:09+02:00</time>
      </trkpt>
      <trkpt lat="43.60454" lon="5.17155">
        <ele>160</ele>
        <time>2022-03-30T14:38:34+02:00</time>
      </trkpt>
      <trkpt lat="43.60444" lon="5.17184">
        <ele>155</ele>
        <time>2022-03-30T14:40:33+02:00</time>
      </trkpt>
      <trkpt lat="43.60441" lon="5.17217">
        <ele>159</ele>
        <time>2022-03-30T14:41:03+02:00</time>
      </trkpt>
      <trkpt lat="43.6044" lon="5.17251">
        <ele>159</ele>
        <time>2022-03-30T14:41:24+02:00</time>
      </trkpt>
      <trkpt lat="43.60442" lon="5.17285">
        <ele>158</ele>
        <time>2022-03-30T14:41:44+02:00</time>
      </trkpt>
      <trkpt lat="43.60437" lon="5.17318">
        <ele>157</ele>
        <time>2022-03-30T14:42:06+02:00</time>
      </trkpt>
      <trkpt lat="43.6043" lon="5.1735">
        <ele>159</ele>
        <time>2022-03-30T14:42:26+02:00</time>
      </trkpt>
      <trkpt lat="43.60422" lon="5.1738">
        <ele>158</ele>
        <time>2022-03-30T14:42:50+02:00</time>
      </trkpt>
      <trkpt lat="43.6041" lon="5.17413">
        <ele>155</ele>
        <time>2022-03-30T14:43:50+02:00</time>
      </trkpt>
      <trkpt lat="43.60398" lon="5.17443">
        <ele>158</ele>
        <time>2022-03-30T14:44:14+02:00</time>
      </trkpt>
      <trkpt lat="43.60388" lon="5.17473">
        <ele>162</ele>
        <time>2022-03-30T14:44:36+02:00</time>
      </trkpt>
      <trkpt lat="43.60384" lon="5.17506">
        <ele>163</ele>
        <time>2022-03-30T14:45:06+02:00</time>
      </trkpt>
      <trkpt lat="43.60379" lon="5.17537">
        <ele>165</ele>
        <time>2022-03-30T14:46:26+02:00</time>
      </trkpt>
      <trkpt lat="43.60369" lon="5.1757">
        <ele>167</ele>
        <time>2022-03-30T14:47:00+02:00</time>
      </trkpt>
      <trkpt lat="43.60372" lon="5.17602">
        <ele>165</ele>
        <time>2022-03-30T14:48:01+02:00</time>
      </trkpt>
      <trkpt lat="43.60381" lon="5.17632">
        <ele>169</ele>
        <time>2022-03-30T14:48:56+02:00</time>
      </trkpt>
      <trkpt lat="43.60373" lon="5.17665">
        <ele>165</ele>
        <time>2022-03-30T14:49:25+02:00</time>
      </trkpt>
      <trkpt lat="43.60365" lon="5.17696">
        <ele>167</ele>
        <time>2022-03-30T14:49:54+02:00</time>
      </trkpt>
      <trkpt lat="43.60347" lon="5.17716">
        <ele>166</ele>
        <time>2022-03-30T14:50:20+02:00</time>
      </trkpt>
      <trkpt lat="43.60344" lon="5.17747">
        <ele>166</ele>
        <time>2022-03-30T14:50:51+02:00</time>
      </trkpt>
      <trkpt lat="43.60343" lon="5.17779">
        <ele>168</ele>
        <time>2022-03-30T14:51:12+02:00</time>
      </trkpt>
      <trkpt lat="43.60335" lon="5.17808">
        <ele>169</ele>
        <time>2022-03-30T14:51:34+02:00</time>
      </trkpt>
      <trkpt lat="43.6033" lon="5.17841">
        <ele>167</ele>
        <time>2022-03-30T14:51:58+02:00</time>
      </trkpt>
      <trkpt lat="43.60321" lon="5.17869">
        <ele>167</ele>
        <time>2022-03-30T14:52:29+02:00</time>
      </trkpt>
      <trkpt lat="43.6032" lon="5.17903">
        <ele>172</ele>
        <time>2022-03-30T14:52:56+02:00</time>
      </trkpt>
      <trkpt lat="43.60312" lon="5.17933">
        <ele>176</ele>
        <time>2022-03-30T14:53:28+02:00</time>
      </trkpt>
      <trkpt lat="43.60318" lon="5.17965">
        <ele>180</ele>
        <time>2022-03-30T14:54:04+02:00</time>
      </trkpt>
      <trkpt lat="43.60328" lon="5.17994">
        <ele>182</ele>
        <time>2022-03-30T14:54:43+02:00</time>
      </trkpt>
      <trkpt lat="43.60341" lon="5.18021">
        <ele>189</ele>
        <time>2022-03-30T14:55:20+02:00</time>
      </trkpt>
      <trkpt lat="43.60338" lon="5.18054">
        <ele>191</ele>
        <time>2022-03-30T14:55:53+02:00</time>
      </trkpt>
      <trkpt lat="43.60314" lon="5.18063">
        <ele>195</ele>
        <time>2022-03-30T14:56:24+02:00</time>
      </trkpt>
      <trkpt lat="43.60294" lon="5.18079">
        <ele>195</ele>
        <time>2022-03-30T14:56:58+02:00</time>
      </trkpt>
      <trkpt lat="43.60276" lon="5.18098">
        <ele>195</ele>
        <time>2022-03-30T15:03:15+02:00</time>
      </trkpt>
      <trkpt lat="43.60294" lon="5.18078">
        <ele>180</ele>
        <time>2022-03-30T15:06:45+02:00</time>
      </trkpt>
      <trkpt lat="43.60316" lon="5.18067">
        <ele>171</ele>
        <time>2022-03-30T15:07:15+02:00</time>
      </trkpt>
      <trkpt lat="43.60338" lon="5.18055">
        <ele>160</ele>
        <time>2022-03-30T15:07:47+02:00</time>
      </trkpt>
      <trkpt lat="43.60362" lon="5.18053">
        <ele>152</ele>
        <time>2022-03-30T15:08:14+02:00</time>
      </trkpt>
      <trkpt lat="43.60386" lon="5.18059">
        <ele>148</ele>
        <time>2022-03-30T15:08:52+02:00</time>
      </trkpt>
      <trkpt lat="43.6041" lon="5.18059">
        <ele>144</ele>
        <time>2022-03-30T15:09:19+02:00</time>
      </trkpt>
      <trkpt lat="43.60432" lon="5.18068">
        <ele>140</ele>
        <time>2022-03-30T15:09:44+02:00</time>
      </trkpt>
      <trkpt lat="43.60438" lon="5.18099">
        <ele>142</ele>
        <time>2022-03-30T15:10:06+02:00</time>
      </trkpt>
      <trkpt lat="43.60461" lon="5.18104">
        <ele>143</ele>
        <time>2022-03-30T15:10:37+02:00</time>
      </trkpt>
      <trkpt lat="43.60474" lon="5.18131">
        <ele>160</ele>
        <time>2022-03-30T15:11:48+02:00</time>
      </trkpt>
      <trkpt lat="43.60497" lon="5.18137">
        <ele>157</ele>
        <time>2022-03-30T15:12:37+02:00</time>
      </trkpt>
      <trkpt lat="43.60519" lon="5.18129">
        <ele>144</ele>
        <time>2022-03-30T15:13:07+02:00</time>
      </trkpt>
      <trkpt lat="43.60542" lon="5.18128">
        <ele>140</ele>
        <time>2022-03-30T15:13:31+02:00</time>
      </trkpt>
      <trkpt lat="43.60565" lon="5.18121">
        <ele>132</ele>
        <time>2022-03-30T15:13:59+02:00</time>
      </trkpt>
      <trkpt lat="43.60588" lon="5.18124">
        <ele>130</ele>
        <time>2022-03-30T15:14:23+02:00</time>
      </trkpt>
      <trkpt lat="43.606" lon="5.18094">
        <ele>130</ele>
        <time>2022-03-30T15:14:50+02:00</time>
      </trkpt>
      <trkpt lat="43.60617" lon="5.18071">
        <ele>132</ele>
        <time>2022-03-30T15:15:19+02:00</time>
      </trkpt>
      <trkpt lat="43.60623" lon="5.18039">
        <ele>136</ele>
        <time>2022-03-30T15:15:41+02:00</time>
      </trkpt>
      <trkpt lat="43.60629" lon="5.18007">
        <ele>135</ele>
        <time>2022-03-30T15:16:41+02:00</time>
      </trkpt>
      <trkpt lat="43.60636" lon="5.17976">
        <ele>135</ele>
        <time>2022-03-30T15:17:19+02:00</time>
      </trkpt>
      <trkpt lat="43.60645" lon="5.17947">
        <ele>134</ele>
        <time>2022-03-30T15:17:43+02:00</time>
      </trkpt>
      <trkpt lat="43.60653" lon="5.17918">
        <ele>135</ele>
        <time>2022-03-30T15:18:05+02:00</time>
      </trkpt>
      <trkpt lat="43.60663" lon="5.17888">
        <ele>134</ele>
        <time>2022-03-30T15:18:31+02:00</time>
      </trkpt>
      <trkpt lat="43.60674" lon="5.1786">
        <ele>141</ele>
        <time>2022-03-30T15:18:55+02:00</time>
      </trkpt>
      <trkpt lat="43.60685" lon="5.17832">
        <ele>142</ele>
        <time>2022-03-30T15:19:15+02:00</time>
      </trkpt>
      <trkpt lat="43.60694" lon="5.17802">
        <ele>139</ele>
        <time>2022-03-30T15:19:54+02:00</time>
      </trkpt>
      <trkpt lat="43.60704" lon="5.17771">
        <ele>135</ele>
        <time>2022-03-30T15:21:22+02:00</time>
      </trkpt>
      <trkpt lat="43.60712" lon="5.1774">
        <ele>135</ele>
        <time>2022-03-30T15:21:48+02:00</time>
      </trkpt>
      <trkpt lat="43.60721" lon="5.1771">
        <ele>138</ele>
        <time>2022-03-30T15:22:10+02:00</time>
      </trkpt>
      <trkpt lat="43.6073" lon="5.17681">
        <ele>134</ele>
        <time>2022-03-30T15:22:34+02:00</time>
      </trkpt>
      <trkpt lat="43.60739" lon="5.17651">
        <ele>144</ele>
        <time>2022-03-30T15:23:02+02:00</time>
      </trkpt>
      <trkpt lat="43.60748" lon="5.17622">
        <ele>145</ele>
        <time>2022-03-30T15:23:24+02:00</time>
      </trkpt>
      <trkpt lat="43.60759" lon="5.17592">
        <ele>142</ele>
        <time>2022-03-30T15:25:50+02:00</time>
      </trkpt>
      <trkpt lat="43.60767" lon="5.1756">
        <ele>144</ele>
        <time>2022-03-30T15:26:18+02:00</time>
      </trkpt>
      <trkpt lat="43.60775" lon="5.17531">
        <ele>143</ele>
        <time>2022-03-30T15:26:43+02:00</time>
      </trkpt>
      <trkpt lat="43.60784" lon="5.175">
        <ele>144</ele>
        <time>2022-03-30T15:27:08+02:00</time>
      </trkpt>
      <trkpt lat="43.60792" lon="5.1747">
        <ele>146</ele>
        <time>2022-03-30T15:27:31+02:00</time>
      </trkpt>
      <trkpt lat="43.60802" lon="5.17442">
        <ele>146</ele>
        <time>2022-03-30T15:27:50+02:00</time>
      </trkpt>
      <trkpt lat="43.60812" lon="5.1741">
        <ele>146</ele>
        <time>2022-03-30T15:29:37+02:00</time>
      </trkpt>
      <trkpt lat="43.60819" lon="5.1738">
        <ele>146</ele>
        <time>2022-03-30T15:31:17+02:00</time>
      </trkpt>
      <trkpt lat="43.60826" lon="5.17349">
        <ele>143</ele>
        <time>2022-03-30T15:31:41+02:00</time>
      </trkpt>
      <trkpt lat="43.60836" lon="5.17317">
        <ele>144</ele>
        <time>2022-03-30T15:32:03+02:00</time>
      </trkpt>
      <trkpt lat="43.60838" lon="5.17284">
        <ele>144</ele>
        <time>2022-03-30T15:32:28+02:00</time>
      </trkpt>
      <trkpt lat="43.60826" lon="5.17257">
        <ele>146</ele>
        <time>2022-03-30T15:32:50+02:00</time>
      </trkpt>
      <trkpt lat="43.60818" lon="5.17224">
        <ele>147</ele>
        <time>2022-03-30T15:33:14+02:00</time>
      </trkpt>
      <trkpt lat="43.60809" lon="5.17196">
        <ele>149</ele>
        <time>2022-03-30T15:33:38+02:00</time>
      </trkpt>
      <trkpt lat="43.6079" lon="5.17174">
        <ele>151</ele>
        <time>2022-03-30T15:34:06+02:00</time>
      </trkpt>
      <trkpt lat="43.60766" lon="5.1717">
        <ele>153</ele>
        <time>2022-03-30T15:34:29+02:00</time>
      </trkpt>
      <trkpt lat="43.60741" lon="5.17163">
        <ele>153</ele>
        <time>2022-03-30T15:34:53+02:00</time>
      </trkpt>
      <trkpt lat="43.60719" lon="5.1715">
        <ele>154</ele>
        <time>2022-03-30T15:35:17+02:00</time>
      </trkpt>
      <trkpt lat="43.60697" lon="5.17141">
        <ele>154</ele>
        <time>2022-03-30T15:35:50+02:00</time>
      </trkpt>
      <trkpt lat="43.60675" lon="5.17127">
        <ele>156</ele>
        <time>2022-03-30T15:36:10+02:00</time>
      </trkpt>
      <trkpt lat="43.60652" lon="5.17114">
        <ele>156</ele>
        <time>2022-03-30T15:36:33+02:00</time>
      </trkpt>
      <trkpt lat="43.60634" lon="5.17091">
        <ele>155</ele>
        <time>2022-03-30T15:36:56+02:00</time>
      </trkpt>
      <trkpt lat="43.60613" lon="5.17075">
        <ele>151</ele>
        <time>2022-03-30T15:37:20+02:00</time>
      </trkpt>
      <trkpt lat="43.60592" lon="5.17061">
        <ele>152</ele>
        <time>2022-03-30T15:37:51+02:00</time>
      </trkpt>
      <trkpt lat="43.60569" lon="5.1705">
        <ele>151</ele>
        <time>2022-03-30T15:38:12+02:00</time>
      </trkpt>
      <trkpt lat="43.60573" lon="5.17019">
        <ele>150</ele>
        <time>2022-03-30T15:38:49+02:00</time>
      </trkpt>
      <trkpt lat="43.60595" lon="5.17012">
        <ele>150</ele>
        <time>2022-03-30T15:39:10+02:00</time>
      </trkpt>
      <trkpt lat="43.60615" lon="5.16995">
        <ele>152</ele>
        <time>2022-03-30T15:39:32+02:00</time>
      </trkpt>
      <trkpt lat="43.60629" lon="5.16966">
        <ele>150</ele>
        <time>2022-03-30T15:40:02+02:00</time>
      </trkpt>
      <trkpt lat="43.60642" lon="5.16937">
        <ele>151</ele>
        <time>2022-03-30T15:40:24+02:00</time>
      </trkpt>
      <trkpt lat="43.60656" lon="5.1691">
        <ele>151</ele>
        <time>2022-03-30T15:40:45+02:00</time>
      </trkpt>
      <trkpt lat="43.60669" lon="5.16882">
        <ele>150</ele>
        <time>2022-03-30T15:41:06+02:00</time>
      </trkpt>
      <trkpt lat="43.60675" lon="5.16851">
        <ele>152</ele>
        <time>2022-03-30T15:41:32+02:00</time>
      </trkpt>
      <trkpt lat="43.60685" lon="5.16822">
        <ele>154</ele>
        <time>2022-03-30T15:41:56+02:00</time>
      </trkpt>
      <trkpt lat="43.60699" lon="5.16792">
        <ele>156</ele>
        <time>2022-03-30T15:42:20+02:00</time>
      </trkpt>
      <trkpt lat="43.60706" lon="5.1676">
        <ele>158</ele>
        <time>2022-03-30T15:42:45+02:00</time>
      </trkpt>
      <trkpt lat="43.6071" lon="5.16726">
        <ele>159</ele>
        <time>2022-03-30T15:43:13+02:00</time>
      </trkpt>
      <trkpt lat="43.60706" lon="5.16693">
        <ele>159</ele>
        <time>2022-03-30T15:43:39+02:00</time>
      </trkpt>
      <trkpt lat="43.6072" lon="5.16665">
        <ele>161</ele>
        <time>2022-03-30T15:44:41+02:00</time>
      </trkpt>
      <trkpt lat="43.60737" lon="5.16644">
        <ele>163</ele>
        <time>2022-03-30T15:47:49+02:00</time>
      </trkpt>
      <trkpt lat="43.60749" lon="5.16616">
        <ele>161</ele>
        <time>2022-03-30T15:48:17+02:00</time>
      </trkpt>
      <trkpt lat="43.60764" lon="5.1659">
        <ele>162</ele>
        <time>2022-03-30T15:48:45+02:00</time>
      </trkpt>
      <trkpt lat="43.60768" lon="5.16558">
        <ele>161</ele>
        <time>2022-03-30T15:49:12+02:00</time>
      </trkpt>
      <trkpt lat="43.60746" lon="5.16543">
        <ele>159</ele>
        <time>2022-03-30T15:49:40+02:00</time>
      </trkpt>
      <trkpt lat="43.6073" lon="5.1652">
        <ele>155</ele>
        <time>2022-03-30T15:50:06+02:00</time>
      </trkpt>
      <trkpt lat="43.60718" lon="5.16493">
        <ele>153</ele>
        <time>2022-03-30T15:50:33+02:00</time>
      </trkpt>
      <trkpt lat="43.60704" lon="5.16467">
        <ele>148</ele>
        <time>2022-03-30T15:51:04+02:00</time>
      </trkpt>
      <trkpt lat="43.60688" lon="5.1644">
        <ele>144</ele>
        <time>2022-03-30T15:51:32+02:00</time>
      </trkpt>
      <trkpt lat="43.60672" lon="5.16417">
        <ele>143</ele>
        <time>2022-03-30T15:51:52+02:00</time>
      </trkpt>
      <trkpt lat="43.60646" lon="5.16412">
        <ele>144</ele>
        <time>2022-03-30T15:52:19+02:00</time>
      </trkpt>
      <trkpt lat="43.60643" lon="5.16378">
        <ele>142</ele>
        <time>2022-03-30T15:52:46+02:00</time>
      </trkpt>
      <trkpt lat="43.60649" lon="5.16345">
        <ele>145</ele>
        <time>2022-03-30T15:53:09+02:00</time>
      </trkpt>
      <trkpt lat="43.60651" lon="5.16312">
        <ele>144</ele>
        <time>2022-03-30T15:53:37+02:00</time>
      </trkpt>
      <trkpt lat="43.60657" lon="5.16282">
        <ele>144</ele>
        <time>2022-03-30T15:53:58+02:00</time>
      </trkpt>
      <trkpt lat="43.6067" lon="5.16255">
        <ele>142</ele>
        <time>2022-03-30T15:54:27+02:00</time>
      </trkpt>
      <trkpt lat="43.60689" lon="5.1624">
        <ele>139</ele>
        <time>2022-03-30T15:54:49+02:00</time>
      </trkpt>
      <trkpt lat="43.6071" lon="5.16223">
        <ele>137</ele>
        <time>2022-03-30T15:55:46+02:00</time>
      </trkpt>
      <trkpt lat="43.60732" lon="5.16216">
        <ele>135</ele>
        <time>2022-03-30T15:56:08+02:00</time>
      </trkpt>
      <trkpt lat="43.60756" lon="5.16214">
        <ele>134</ele>
        <time>2022-03-30T15:56:32+02:00</time>
      </trkpt>
      <trkpt lat="43.60779" lon="5.16221">
        <ele>135</ele>
        <time>2022-03-30T15:56:58+02:00</time>
      </trkpt>
      <trkpt lat="43.60778" lon="5.16254">
        <ele>136</ele>
        <time>2022-03-30T15:57:23+02:00</time>
      </trkpt>
      <trkpt lat="43.60777" lon="5.16286">
        <ele>138</ele>
        <time>2022-03-30T15:57:57+02:00</time>
      </trkpt>
      <trkpt lat="43.60779" lon="5.16319">
        <ele>136</ele>
        <time>2022-03-30T15:58:19+02:00</time>
      </trkpt>
      <trkpt lat="43.60795" lon="5.16343">
        <ele>135</ele>
        <time>2022-03-30T15:59:52+02:00</time>
      </trkpt>
      <trkpt lat="43.60817" lon="5.16357">
        <ele>142</ele>
        <time>2022-03-30T16:00:40+02:00</time>
      </trkpt>
      <trkpt lat="43.60838" lon="5.16373">
        <ele>135</ele>
        <time>2022-03-30T16:01:08+02:00</time>
      </trkpt>
      <trkpt lat="43.60862" lon="5.1637">
        <ele>134</ele>
        <time>2022-03-30T16:01:40+02:00</time>
      </trkpt>
      <trkpt lat="43.60886" lon="5.1637">
        <ele>130</ele>
        <time>2022-03-30T16:02:06+02:00</time>
      </trkpt>
      <trkpt lat="43.6091" lon="5.16369">
        <ele>130</ele>
        <time>2022-03-30T16:02:32+02:00</time>
      </trkpt>
      <trkpt lat="43.60933" lon="5.16361">
        <ele>128</ele>
        <time>2022-03-30T16:02:57+02:00</time>
      </trkpt>
      <trkpt lat="43.60957" lon="5.16353">
        <ele>130</ele>
        <time>2022-03-30T16:03:22+02:00</time>
      </trkpt>
      <trkpt lat="43.60981" lon="5.16351">
        <ele>130</ele>
        <time>2022-03-30T16:03:49+02:00</time>
      </trkpt>
      <trkpt lat="43.61006" lon="5.1635">
        <ele>135</ele>
        <time>2022-03-30T16:04:14+02:00</time>
      </trkpt>
      <trkpt lat="43.6103" lon="5.16339">
        <ele>136</ele>
        <time>2022-03-30T16:04:47+02:00</time>
      </trkpt>
      <trkpt lat="43.61039" lon="5.16309">
        <ele>130</ele>
        <time>2022-03-30T16:05:41+02:00</time>
      </trkpt>
      <trkpt lat="43.61036" lon="5.16277">
        <ele>129</ele>
        <time>2022-03-30T16:06:30+02:00</time>
      </trkpt>
      <trkpt lat="43.61043" lon="5.16244">
        <ele>121</ele>
        <time>2022-03-30T16:10:22+02:00</time>
      </trkpt>
      <trkpt lat="43.61049" lon="5.16212">
        <ele>119</ele>
        <time>2022-03-30T16:10:57+02:00</time>
      </trkpt>
      <trkpt lat="43.61064" lon="5.16186">
        <ele>121</ele>
        <time>2022-03-30T16:11:34+02:00</time>
      </trkpt>
      <trkpt lat="43.61083" lon="5.16167">
        <ele>118</ele>
        <time>2022-03-30T16:12:04+02:00</time>
      </trkpt>
      <trkpt lat="43.61095" lon="5.16141">
        <ele>121</ele>
        <time>2022-03-30T16:12:37+02:00</time>
      </trkpt>
      <trkpt lat="43.61098" lon="5.16109">
        <ele>121</ele>
        <time>2022-03-30T16:13:03+02:00</time>
      </trkpt>
      <trkpt lat="43.611" lon="5.16077">
        <ele>123</ele>
        <time>2022-03-30T16:13:26+02:00</time>
      </trkpt>
      <trkpt lat="43.61103" lon="5.16045">
        <ele>129</ele>
        <time>2022-03-30T16:13:51+02:00</time>
      </trkpt>
      <trkpt lat="43.61106" lon="5.16014">
        <ele>130</ele>
        <time>2022-03-30T16:14:14+02:00</time>
      </trkpt>
      <trkpt lat="43.61108" lon="5.15981">
        <ele>129</ele>
        <time>2022-03-30T16:14:38+02:00</time>
      </trkpt>
      <trkpt lat="43.61111" lon="5.15948">
        <ele>130</ele>
        <time>2022-03-30T16:15:01+02:00</time>
      </trkpt>
      <trkpt lat="43.61114" lon="5.15917">
        <ele>128</ele>
        <time>2022-03-30T16:15:24+02:00</time>
      </trkpt>
    </trkseg>
  </trk>
</gpx>